sensor_id;sensor_type;location;lat;lon;timestamp;P1;P2;P0
72307;PMS5003;60257;42.638;23.376;2023-06-24T00:02:06;30.25;30.25;19.00
72307;PMS5003;60257;42.638;23.376;2023-06-24T00:04:31;32.75;31.75;20.00
72307;PMS5003;60257;42.638;23.376;2023-06-24T00:06:57;28.00;28.00;19.00
72307;PMS5003;60257;42.638;23.376;2023-06-24T00:09:25;29.75;29.75;19.75
72307;PMS5003;60257;42.638;23.376;2023-06-24T00:11:53;32.00;31.50;20.25
72307;PMS5003;60257;42.638;23.376;2023-06-24T00:14:21;31.75;29.75;19.25
72307;PMS5003;60257;42.638;23.376;2023-06-24T00:16:49;27.00;26.75;19.00
72307;PMS5003;60257;42.638;23.376;2023-06-24T00:19:26;29.50;29.50;18.25
72307;PMS5003;60257;42.638;23.376;2023-06-24T00:21:52;29.50;29.50;18.75
72307;PMS5003;60257;42.638;23.376;2023-06-24T00:24:18;30.25;29.00;20.00
72307;PMS5003;60257;42.638;23.376;2023-06-24T00:26:45;31.00;30.25;20.75
72307;PMS5003;60257;42.638;23.376;2023-06-24T00:29:11;32.75;31.75;21.00
72307;PMS5003;60257;42.638;23.376;2023-06-24T00:31:37;29.25;29.25;17.00
72307;PMS5003;60257;42.638;23.376;2023-06-24T00:34:02;29.25;29.25;18.75
72307;PMS5003;60257;42.638;23.376;2023-06-24T00:36:28;36.25;32.25;21.25
72307;PMS5003;60257;42.638;23.376;2023-06-24T00:38:54;33.25;31.50;18.75
72307;PMS5003;60257;42.638;23.376;2023-06-24T00:41:21;33.75;32.50;21.25
72307;PMS5003;60257;42.638;23.376;2023-06-24T00:43:47;33.25;32.25;19.75
72307;PMS5003;60257;42.638;23.376;2023-06-24T00:46:14;28.25;26.75;19.50
72307;PMS5003;60257;42.638;23.376;2023-06-24T00:48:40;35.75;33.00;21.00
72307;PMS5003;60257;42.638;23.376;2023-06-24T00:51:06;32.50;31.00;21.25
72307;PMS5003;60257;42.638;23.376;2023-06-24T00:53:31;34.50;32.25;21.50
72307;PMS5003;60257;42.638;23.376;2023-06-24T00:55:57;38.00;34.75;21.75
72307;PMS5003;60257;42.638;23.376;2023-06-24T00:58:28;27.75;26.50;18.00
72307;PMS5003;60257;42.638;23.376;2023-06-24T01:00:57;33.25;32.25;21.25
72307;PMS5003;60257;42.638;23.376;2023-06-24T01:03:25;35.00;34.00;21.25
72307;PMS5003;60257;42.638;23.376;2023-06-24T01:05:51;28.50;28.50;20.50
72307;PMS5003;60257;42.638;23.376;2023-06-24T01:08:18;35.00;31.50;21.25
72307;PMS5003;60257;42.638;23.376;2023-06-24T01:10:44;37.00;34.00;21.25
72307;PMS5003;60257;42.638;23.376;2023-06-24T01:13:10;32.75;31.75;20.25
72307;PMS5003;60257;42.638;23.376;2023-06-24T01:15:36;40.75;35.00;23.25
72307;PMS5003;60257;42.638;23.376;2023-06-24T01:18:05;35.50;33.00;22.25
72307;PMS5003;60257;42.638;23.376;2023-06-24T01:26:14;38.50;35.50;24.00
72307;PMS5003;60257;42.638;23.376;2023-06-24T01:34:37;35.25;32.50;20.00
72307;PMS5003;60257;42.638;23.376;2023-06-24T01:37:20;37.00;33.25;22.50
72307;PMS5003;60257;42.638;23.376;2023-06-24T01:40:07;38.00;34.75;21.25
72307;PMS5003;60257;42.638;23.376;2023-06-24T01:42:37;33.25;32.00;21.25
72307;PMS5003;60257;42.638;23.376;2023-06-24T01:45:06;36.50;34.00;21.00
72307;PMS5003;60257;42.638;23.376;2023-06-24T01:47:34;37.50;34.50;21.25
72307;PMS5003;60257;42.638;23.376;2023-06-24T01:50:01;27.25;25.50;18.75
72307;PMS5003;60257;42.638;23.376;2023-06-24T01:52:28;30.75;29.25;18.25
72307;PMS5003;60257;42.638;23.376;2023-06-24T01:54:55;34.25;32.00;19.75
72307;PMS5003;60257;42.638;23.376;2023-06-24T01:57:24;36.75;33.75;21.00
72307;PMS5003;60257;42.638;23.376;2023-06-24T01:59:52;35.50;33.00;21.25
72307;PMS5003;60257;42.638;23.376;2023-06-24T02:02:20;33.75;30.50;18.25
72307;PMS5003;60257;42.638;23.376;2023-06-24T02:04:48;34.75;31.75;21.00
72307;PMS5003;60257;42.638;23.376;2023-06-24T02:07:15;32.50;30.75;21.25
72307;PMS5003;60257;42.638;23.376;2023-06-24T02:09:43;39.25;35.25;23.25
72307;PMS5003;60257;42.638;23.376;2023-06-24T02:12:10;35.00;33.75;23.00
72307;PMS5003;60257;42.638;23.376;2023-06-24T02:14:37;36.50;34.50;21.00
72307;PMS5003;60257;42.638;23.376;2023-06-24T02:17:06;30.75;29.75;19.25
72307;PMS5003;60257;42.638;23.376;2023-06-24T02:19:35;27.75;27.75;17.25
72307;PMS5003;60257;42.638;23.376;2023-06-24T02:22:03;30.25;30.25;20.50
72307;PMS5003;60257;42.638;23.376;2023-06-24T02:24:35;32.50;31.75;21.00
72307;PMS5003;60257;42.638;23.376;2023-06-24T02:27:02;32.75;31.50;20.50
72307;PMS5003;60257;42.638;23.376;2023-06-24T02:29:30;33.25;31.00;18.75
72307;PMS5003;60257;42.638;23.376;2023-06-24T02:31:57;33.50;32.25;22.75
72307;PMS5003;60257;42.638;23.376;2023-06-24T02:34:23;35.00;33.00;21.00
72307;PMS5003;60257;42.638;23.376;2023-06-24T02:36:49;38.25;35.00;22.25
72307;PMS5003;60257;42.638;23.376;2023-06-24T02:39:14;40.75;36.50;23.50
72307;PMS5003;60257;42.638;23.376;2023-06-24T02:41:40;35.00;33.75;21.25
72307;PMS5003;60257;42.638;23.376;2023-06-24T02:44:05;45.33;39.67;26.00
72307;PMS5003;60257;42.638;23.376;2023-06-24T02:46:31;43.50;38.50;24.50
72307;PMS5003;60257;42.638;23.376;2023-06-24T02:48:59;33.00;31.75;21.00
72307;PMS5003;60257;42.638;23.376;2023-06-24T02:51:26;44.50;37.25;24.00
72307;PMS5003;60257;42.638;23.376;2023-06-24T02:53:51;40.00;35.00;23.00
72307;PMS5003;60257;42.638;23.376;2023-06-24T02:56:18;40.67;36.33;23.33
72307;PMS5003;60257;42.638;23.376;2023-06-24T02:58:46;38.50;35.50;21.25
72307;PMS5003;60257;42.638;23.376;2023-06-24T03:01:12;40.50;35.50;21.75
72307;PMS5003;60257;42.638;23.376;2023-06-24T03:03:40;41.00;36.67;25.00
72307;PMS5003;60257;42.638;23.376;2023-06-24T03:06:07;36.25;33.00;21.75
72307;PMS5003;60257;42.638;23.376;2023-06-24T03:08:37;38.25;35.50;22.75
72307;PMS5003;60257;42.638;23.376;2023-06-24T03:11:04;38.67;35.67;22.33
72307;PMS5003;60257;42.638;23.376;2023-06-24T03:13:29;43.75;38.25;23.50
72307;PMS5003;60257;42.638;23.376;2023-06-24T03:15:55;43.67;38.67;24.67
72307;PMS5003;60257;42.638;23.376;2023-06-24T03:18:20;40.75;36.25;23.00
72307;PMS5003;60257;42.638;23.376;2023-06-24T03:20:46;37.75;35.25;22.25
72307;PMS5003;60257;42.638;23.376;2023-06-24T03:23:12;42.25;36.25;24.00
72307;PMS5003;60257;42.638;23.376;2023-06-24T03:25:37;37.75;33.75;22.50
72307;PMS5003;60257;42.638;23.376;2023-06-24T03:28:03;38.00;35.25;22.75
72307;PMS5003;60257;42.638;23.376;2023-06-24T03:30:29;38.00;35.50;23.00
72307;PMS5003;60257;42.638;23.376;2023-06-24T03:32:55;41.50;37.00;23.50
72307;PMS5003;60257;42.638;23.376;2023-06-24T03:35:22;37.50;34.00;22.50
72307;PMS5003;60257;42.638;23.376;2023-06-24T03:37:48;33.25;31.50;20.25
72307;PMS5003;60257;42.638;23.376;2023-06-24T03:40:14;31.00;29.75;20.00
72307;PMS5003;60257;42.638;23.376;2023-06-24T03:42:39;38.50;35.00;23.00
72307;PMS5003;60257;42.638;23.376;2023-06-24T03:45:05;37.50;34.75;22.00
72307;PMS5003;60257;42.638;23.376;2023-06-24T03:47:31;38.25;35.50;22.75
72307;PMS5003;60257;42.638;23.376;2023-06-24T03:49:56;31.50;31.50;22.00
72307;PMS5003;60257;42.638;23.376;2023-06-24T03:52:22;33.25;32.00;19.00
72307;PMS5003;60257;42.638;23.376;2023-06-24T03:54:47;39.75;35.50;22.00
72307;PMS5003;60257;42.638;23.376;2023-06-24T03:57:13;37.50;33.75;23.00
72307;PMS5003;60257;42.638;23.376;2023-06-24T03:59:39;40.00;35.67;22.00
72307;PMS5003;60257;42.638;23.376;2023-06-24T04:02:05;33.00;30.75;22.00
72307;PMS5003;60257;42.638;23.376;2023-06-24T04:04:34;32.50;31.00;21.00
72307;PMS5003;60257;42.638;23.376;2023-06-24T04:07:00;30.75;28.50;21.25
72307;PMS5003;60257;42.638;23.376;2023-06-24T04:09:25;42.00;35.00;23.25
72307;PMS5003;60257;42.638;23.376;2023-06-24T04:11:51;35.50;32.50;21.25
72307;PMS5003;60257;42.638;23.376;2023-06-24T04:14:16;39.25;35.00;22.00
72307;PMS5003;60257;42.638;23.376;2023-06-24T04:16:42;30.00;30.00;17.00
72307;PMS5003;60257;42.638;23.376;2023-06-24T04:19:07;38.50;34.00;22.25
72307;PMS5003;60257;42.638;23.376;2023-06-24T04:21:33;39.50;35.00;23.25
72307;PMS5003;60257;42.638;23.376;2023-06-24T04:23:58;47.33;40.67;25.00
72307;PMS5003;60257;42.638;23.376;2023-06-24T04:26:24;30.00;30.00;20.25
72307;PMS5003;60257;42.638;23.376;2023-06-24T04:28:49;34.00;32.50;21.00
72307;PMS5003;60257;42.638;23.376;2023-06-24T04:31:15;37.50;35.25;22.75
72307;PMS5003;60257;42.638;23.376;2023-06-24T04:33:40;33.25;32.00;22.00
72307;PMS5003;60257;42.638;23.376;2023-06-24T04:36:06;37.75;35.00;24.00
72307;PMS5003;60257;42.638;23.376;2023-06-24T04:38:31;41.00;37.50;24.50
72307;PMS5003;60257;42.638;23.376;2023-06-24T04:40:57;56.33;46.33;30.00
72307;PMS5003;60257;42.638;23.376;2023-06-24T04:43:24;51.00;41.67;25.33
72307;PMS5003;60257;42.638;23.376;2023-06-24T04:45:50;43.33;37.00;24.33
72307;PMS5003;60257;42.638;23.376;2023-06-24T04:48:16;42.50;37.50;24.50
72307;PMS5003;60257;42.638;23.376;2023-06-24T04:50:42;39.75;35.75;23.25
72307;PMS5003;60257;42.638;23.376;2023-06-24T04:53:07;41.50;36.25;22.75
72307;PMS5003;60257;42.638;23.376;2023-06-24T04:55:33;37.75;34.25;23.25
72307;PMS5003;60257;42.638;23.376;2023-06-24T04:57:59;32.75;31.50;20.50
72307;PMS5003;60257;42.638;23.376;2023-06-24T05:00:24;31.50;31.00;20.00
72307;PMS5003;60257;42.638;23.376;2023-06-24T05:02:50;33.75;32.25;22.25
72307;PMS5003;60257;42.638;23.376;2023-06-24T05:05:15;36.25;32.50;19.75
72307;PMS5003;60257;42.638;23.376;2023-06-24T05:07:41;42.25;35.00;22.25
72307;PMS5003;60257;42.638;23.376;2023-06-24T05:10:06;34.75;33.25;22.50
72307;PMS5003;60257;42.638;23.376;2023-06-24T05:12:32;40.50;36.25;23.75
72307;PMS5003;60257;42.638;23.376;2023-06-24T05:14:58;34.00;31.50;21.25
72307;PMS5003;60257;42.638;23.376;2023-06-24T05:17:23;34.75;32.75;21.25
72307;PMS5003;60257;42.638;23.376;2023-06-24T05:19:48;34.00;32.00;21.00
72307;PMS5003;60257;42.638;23.376;2023-06-24T05:22:14;37.50;34.50;22.25
72307;PMS5003;60257;42.638;23.376;2023-06-24T05:24:40;33.00;31.00;20.75
72307;PMS5003;60257;42.638;23.376;2023-06-24T05:27:06;40.75;36.50;22.50
72307;PMS5003;60257;42.638;23.376;2023-06-24T05:29:33;38.00;34.50;23.00
72307;PMS5003;60257;42.638;23.376;2023-06-24T05:31:59;37.50;36.50;26.50
72307;PMS5003;60257;42.638;23.376;2023-06-24T05:34:25;40.75;36.00;23.25
72307;PMS5003;60257;42.638;23.376;2023-06-24T05:36:50;33.50;33.00;21.75
72307;PMS5003;60257;42.638;23.376;2023-06-24T05:39:16;40.25;35.50;22.25
72307;PMS5003;60257;42.638;23.376;2023-06-24T05:41:42;42.00;37.25;25.00
72307;PMS5003;60257;42.638;23.376;2023-06-24T05:44:08;41.00;36.25;23.00
72307;PMS5003;60257;42.638;23.376;2023-06-24T05:46:35;43.50;39.00;24.00
72307;PMS5003;60257;42.638;23.376;2023-06-24T05:49:01;39.75;34.75;23.50
72307;PMS5003;60257;42.638;23.376;2023-06-24T05:51:27;43.75;37.50;24.25
72307;PMS5003;60257;42.638;23.376;2023-06-24T05:53:52;40.50;33.25;22.00
72307;PMS5003;60257;42.638;23.376;2023-06-24T05:56:19;42.25;36.50;25.25
72307;PMS5003;60257;42.638;23.376;2023-06-24T05:58:45;45.75;40.00;26.25
72307;PMS5003;60257;42.638;23.376;2023-06-24T06:01:11;39.75;37.25;23.75
72307;PMS5003;60257;42.638;23.376;2023-06-24T06:03:36;34.25;33.25;21.00
72307;PMS5003;60257;42.638;23.376;2023-06-24T06:06:02;45.50;38.50;24.00
72307;PMS5003;60257;42.638;23.376;2023-06-24T06:08:27;41.00;35.25;23.25
72307;PMS5003;60257;42.638;23.376;2023-06-24T06:10:53;43.25;39.50;26.00
72307;PMS5003;60257;42.638;23.376;2023-06-24T06:13:18;42.25;37.25;24.75
72307;PMS5003;60257;42.638;23.376;2023-06-24T06:15:44;43.50;39.00;25.50
72307;PMS5003;60257;42.638;23.376;2023-06-24T06:18:09;44.75;40.00;26.00
72307;PMS5003;60257;42.638;23.376;2023-06-24T06:20:35;42.50;37.00;24.50
72307;PMS5003;60257;42.638;23.376;2023-06-24T06:23:00;45.50;37.75;25.00
72307;PMS5003;60257;42.638;23.376;2023-06-24T06:25:26;31.75;28.75;16.50
72307;PMS5003;60257;42.638;23.376;2023-06-24T06:27:51;42.00;37.25;24.25
72307;PMS5003;60257;42.638;23.376;2023-06-24T06:30:17;44.75;40.00;26.75
72307;PMS5003;60257;42.638;23.376;2023-06-24T06:32:43;44.25;37.25;24.00
72307;PMS5003;60257;42.638;23.376;2023-06-24T06:35:08;42.25;36.00;23.00
72307;PMS5003;60257;42.638;23.376;2023-06-24T06:37:34;36.00;34.50;23.25
72307;PMS5003;60257;42.638;23.376;2023-06-24T06:39:59;37.25;32.75;20.75
72307;PMS5003;60257;42.638;23.376;2023-06-24T06:42:25;42.75;36.25;24.25
72307;PMS5003;60257;42.638;23.376;2023-06-24T06:44:51;40.75;37.25;24.75
72307;PMS5003;60257;42.638;23.376;2023-06-24T06:47:16;45.25;42.00;27.50
72307;PMS5003;60257;42.638;23.376;2023-06-24T06:49:42;40.25;35.75;22.25
72307;PMS5003;60257;42.638;23.376;2023-06-24T06:52:07;41.25;36.75;25.00
72307;PMS5003;60257;42.638;23.376;2023-06-24T06:54:33;39.50;34.50;22.75
72307;PMS5003;60257;42.638;23.376;2023-06-24T06:57:02;43.00;35.50;23.75
72307;PMS5003;60257;42.638;23.376;2023-06-24T06:59:29;43.00;37.25;24.75
72307;PMS5003;60257;42.638;23.376;2023-06-24T07:01:55;39.50;35.50;23.50
72307;PMS5003;60257;42.638;23.376;2023-06-24T07:04:20;38.75;36.00;23.50
72307;PMS5003;60257;42.638;23.376;2023-06-24T07:06:45;37.25;33.25;22.25
72307;PMS5003;60257;42.638;23.376;2023-06-24T07:09:11;34.50;31.50;21.00
72307;PMS5003;60257;42.638;23.376;2023-06-24T07:11:36;32.00;32.00;21.00
72307;PMS5003;60257;42.638;23.376;2023-06-24T07:14:02;43.00;38.00;24.25
72307;PMS5003;60257;42.638;23.376;2023-06-24T07:16:27;39.50;36.00;22.50
72307;PMS5003;60257;42.638;23.376;2023-06-24T07:18:53;32.00;30.75;20.00
72307;PMS5003;60257;42.638;23.376;2023-06-24T07:21:18;40.50;36.00;23.50
72307;PMS5003;60257;42.638;23.376;2023-06-24T07:23:44;37.25;34.00;23.00
72307;PMS5003;60257;42.638;23.376;2023-06-24T07:26:09;29.75;29.75;20.75
72307;PMS5003;60257;42.638;23.376;2023-06-24T07:28:35;38.50;35.50;24.00
72307;PMS5003;60257;42.638;23.376;2023-06-24T07:31:01;39.50;37.50;23.00
72307;PMS5003;60257;42.638;23.376;2023-06-24T07:33:26;38.00;35.75;24.00
72307;PMS5003;60257;42.638;23.376;2023-06-24T07:35:51;37.00;36.50;25.50
72307;PMS5003;60257;42.638;23.376;2023-06-24T07:38:20;40.00;36.00;25.50
72307;PMS5003;60257;42.638;23.376;2023-06-24T07:40:46;45.50;40.00;26.00
72307;PMS5003;60257;42.638;23.376;2023-06-24T07:43:12;40.50;36.00;25.50
72307;PMS5003;60257;42.638;23.376;2023-06-24T07:45:37;39.75;35.75;24.25
72307;PMS5003;60257;42.638;23.376;2023-06-24T07:48:03;31.00;31.00;23.00
72307;PMS5003;60257;42.638;23.376;2023-06-24T07:50:30;38.50;35.50;24.00
72307;PMS5003;60257;42.638;23.376;2023-06-24T07:52:56;40.25;35.75;23.25
72307;PMS5003;60257;42.638;23.376;2023-06-24T07:55:22;34.50;33.50;22.50
72307;PMS5003;60257;42.638;23.376;2023-06-24T07:57:47;40.00;36.75;23.50
72307;PMS5003;60257;42.638;23.376;2023-06-24T08:00:14;43.25;36.75;24.00
72307;PMS5003;60257;42.638;23.376;2023-06-24T08:02:40;36.50;33.75;23.25
72307;PMS5003;60257;42.638;23.376;2023-06-24T08:05:06;37.75;36.00;22.75
72307;PMS5003;60257;42.638;23.376;2023-06-24T08:07:34;44.75;40.75;27.50
72307;PMS5003;60257;42.638;23.376;2023-06-24T08:10:00;44.25;40.50;25.75
72307;PMS5003;60257;42.638;23.376;2023-06-24T08:12:26;42.75;39.50;26.50
72307;PMS5003;60257;42.638;23.376;2023-06-24T08:14:51;38.25;35.50;23.00
72307;PMS5003;60257;42.638;23.376;2023-06-24T08:17:17;42.75;40.00;26.75
72307;PMS5003;60257;42.638;23.376;2023-06-24T08:19:42;38.50;35.50;23.75
72307;PMS5003;60257;42.638;23.376;2023-06-24T08:22:08;42.75;39.50;26.50
72307;PMS5003;60257;42.638;23.376;2023-06-24T08:24:33;39.75;35.50;23.25
72307;PMS5003;60257;42.638;23.376;2023-06-24T08:26:59;44.50;38.75;25.00
72307;PMS5003;60257;42.638;23.376;2023-06-24T08:29:24;41.25;36.50;25.25
72307;PMS5003;60257;42.638;23.376;2023-06-24T08:31:50;51.25;41.50;26.25
72307;PMS5003;60257;42.638;23.376;2023-06-24T08:34:15;46.25;39.50;25.25
72307;PMS5003;60257;42.638;23.376;2023-06-24T08:36:41;43.75;38.75;24.75
72307;PMS5003;60257;42.638;23.376;2023-06-24T08:39:07;42.25;36.00;24.75
72307;PMS5003;60257;42.638;23.376;2023-06-24T08:41:33;40.75;35.75;23.25
72307;PMS5003;60257;42.638;23.376;2023-06-24T08:43:58;49.75;43.50;28.00
72307;PMS5003;60257;42.638;23.376;2023-06-24T08:46:24;40.50;35.50;23.00
72307;PMS5003;60257;42.638;23.376;2023-06-24T08:48:54;39.75;36.50;24.25
72307;PMS5003;60257;42.638;23.376;2023-06-24T08:51:27;43.75;38.50;23.75
72307;PMS5003;60257;42.638;23.376;2023-06-24T08:53:56;34.25;33.25;22.50
72307;PMS5003;60257;42.638;23.376;2023-06-24T08:56:24;33.75;32.50;21.50
72307;PMS5003;60257;42.638;23.376;2023-06-24T08:58:50;35.75;35.50;23.50
72307;PMS5003;60257;42.638;23.376;2023-06-24T09:01:16;33.75;33.25;22.25
72307;PMS5003;60257;42.638;23.376;2023-06-24T09:03:42;41.25;39.00;25.75
72307;PMS5003;60257;42.638;23.376;2023-06-24T09:06:07;36.75;36.25;25.25
72307;PMS5003;60257;42.638;23.376;2023-06-24T09:08:33;26.50;26.25;11.00
72307;PMS5003;60257;42.638;23.376;2023-06-24T09:11:00;37.25;35.00;23.00
72307;PMS5003;60257;42.638;23.376;2023-06-24T09:13:36;34.75;33.75;21.50
72307;PMS5003;60257;42.638;23.376;2023-06-24T09:16:12;35.50;34.50;22.50
72307;PMS5003;60257;42.638;23.376;2023-06-24T09:18:39;36.75;35.00;21.00
72307;PMS5003;60257;42.638;23.376;2023-06-24T09:21:05;30.75;29.75;18.75
72307;PMS5003;60257;42.638;23.376;2023-06-24T09:23:34;43.25;38.75;26.50
72307;PMS5003;60257;42.638;23.376;2023-06-24T09:26:00;34.25;33.25;22.25
72307;PMS5003;60257;42.638;23.376;2023-06-24T09:28:26;39.00;36.00;23.00
72307;PMS5003;60257;42.638;23.376;2023-06-24T09:31:05;39.75;36.50;22.75
72307;PMS5003;60257;42.638;23.376;2023-06-24T09:33:35;33.75;32.00;21.25
72307;PMS5003;60257;42.638;23.376;2023-06-24T09:36:04;33.75;31.00;19.75
72307;PMS5003;60257;42.638;23.376;2023-06-24T09:38:34;40.50;36.50;22.50
72307;PMS5003;60257;42.638;23.376;2023-06-24T09:41:01;37.75;35.25;20.25
72307;PMS5003;60257;42.638;23.376;2023-06-24T09:43:29;33.75;31.75;19.50
72307;PMS5003;60257;42.638;23.376;2023-06-24T09:45:55;44.00;37.00;25.75
72307;PMS5003;60257;42.638;23.376;2023-06-24T09:48:22;40.25;37.50;23.00
72307;PMS5003;60257;42.638;23.376;2023-06-24T09:50:48;41.00;39.00;26.50
72307;PMS5003;60257;42.638;23.376;2023-06-24T09:53:13;41.00;37.25;24.00
72307;PMS5003;60257;42.638;23.376;2023-06-24T09:55:40;34.00;30.75;21.00
72307;PMS5003;60257;42.638;23.376;2023-06-24T09:58:08;26.50;26.50;15.25
72307;PMS5003;60257;42.638;23.376;2023-06-24T10:00:36;31.25;30.75;22.25
72307;PMS5003;60257;42.638;23.376;2023-06-24T10:03:02;40.50;37.00;23.50
72307;PMS5003;60257;42.638;23.376;2023-06-24T10:05:28;39.25;35.25;23.00
72307;PMS5003;60257;42.638;23.376;2023-06-24T10:07:54;39.00;35.25;23.00
72307;PMS5003;60257;42.638;23.376;2023-06-24T10:10:19;45.00;39.75;25.00
72307;PMS5003;60257;42.638;23.376;2023-06-24T10:12:45;35.00;33.25;22.75
72307;PMS5003;60257;42.638;23.376;2023-06-24T10:15:11;39.00;36.25;26.75
72307;PMS5003;60257;42.638;23.376;2023-06-24T10:17:37;43.75;38.00;25.00
72307;PMS5003;60257;42.638;23.376;2023-06-24T10:20:03;30.50;30.50;23.50
72307;PMS5003;60257;42.638;23.376;2023-06-24T10:22:31;32.50;31.50;21.25
72307;PMS5003;60257;42.638;23.376;2023-06-24T10:24:59;32.75;32.25;19.25
72307;PMS5003;60257;42.638;23.376;2023-06-24T10:27:25;28.75;27.75;16.75
72307;PMS5003;60257;42.638;23.376;2023-06-24T10:29:53;43.50;39.25;25.75
72307;PMS5003;60257;42.638;23.376;2023-06-24T10:32:22;34.75;33.00;22.00
72307;PMS5003;60257;42.638;23.376;2023-06-24T10:34:57;29.25;27.75;15.25
72307;PMS5003;60257;42.638;23.376;2023-06-24T10:37:23;32.50;31.75;21.25
72307;PMS5003;60257;42.638;23.376;2023-06-24T10:39:51;37.25;34.25;22.75
72307;PMS5003;60257;42.638;23.376;2023-06-24T10:47:35;30.50;30.50;22.00
72307;PMS5003;60257;42.638;23.376;2023-06-24T10:50:02;33.00;32.25;21.75
72307;PMS5003;60257;42.638;23.376;2023-06-24T10:52:28;35.75;32.00;20.75
72307;PMS5003;60257;42.638;23.376;2023-06-24T10:54:55;33.50;31.75;21.75
72307;PMS5003;60257;42.638;23.376;2023-06-24T10:57:26;29.75;29.75;20.75
72307;PMS5003;60257;42.638;23.376;2023-06-24T10:59:56;35.25;35.00;22.50
72307;PMS5003;60257;42.638;23.376;2023-06-24T11:02:22;31.50;31.00;20.75
72307;PMS5003;60257;42.638;23.376;2023-06-24T11:04:50;33.75;33.75;23.50
72307;PMS5003;60257;42.638;23.376;2023-06-24T11:07:18;28.25;27.25;18.75
72307;PMS5003;60257;42.638;23.376;2023-06-24T11:09:50;35.25;32.75;21.50
72307;PMS5003;60257;42.638;23.376;2023-06-24T11:12:17;31.50;30.25;19.50
72307;PMS5003;60257;42.638;23.376;2023-06-24T11:14:44;30.75;30.75;20.25
72307;PMS5003;60257;42.638;23.376;2023-06-24T11:17:10;28.25;27.75;19.25
72307;PMS5003;60257;42.638;23.376;2023-06-24T11:19:36;27.25;27.25;20.00
72307;PMS5003;60257;42.638;23.376;2023-06-24T11:22:05;27.50;27.50;21.00
72307;PMS5003;60257;42.638;23.376;2023-06-24T11:24:32;29.25;26.75;16.00
72307;PMS5003;60257;42.638;23.376;2023-06-24T11:26:57;31.75;30.25;19.75
72307;PMS5003;60257;42.638;23.376;2023-06-24T11:29:23;27.00;26.00;18.00
72307;PMS5003;60257;42.638;23.376;2023-06-24T11:31:49;28.75;28.75;19.50
72307;PMS5003;60257;42.638;23.376;2023-06-24T11:34:15;36.25;33.75;19.75
72307;PMS5003;60257;42.638;23.376;2023-06-24T11:36:42;30.75;30.75;20.50
72307;PMS5003;60257;42.638;23.376;2023-06-24T11:39:07;30.00;28.50;18.00
72307;PMS5003;60257;42.638;23.376;2023-06-24T11:41:34;28.75;28.75;18.50
72307;PMS5003;60257;42.638;23.376;2023-06-24T11:43:59;33.25;32.50;21.50
72307;PMS5003;60257;42.638;23.376;2023-06-24T11:46:25;32.75;32.75;20.00
72307;PMS5003;60257;42.638;23.376;2023-06-24T11:48:52;38.00;34.00;22.00
72307;PMS5003;60257;42.638;23.376;2023-06-24T11:51:27;28.50;28.50;18.75
72307;PMS5003;60257;42.638;23.376;2023-06-24T11:53:53;27.00;25.25;21.75
72307;PMS5003;60257;42.638;23.376;2023-06-24T11:56:34;36.75;33.25;21.50
72307;PMS5003;60257;42.638;23.376;2023-06-24T11:59:03;27.00;27.00;19.75
72307;PMS5003;60257;42.638;23.376;2023-06-24T12:01:32;31.00;31.00;21.75
72307;PMS5003;60257;42.638;23.376;2023-06-24T12:04:01;24.00;24.00;16.25
72307;PMS5003;60257;42.638;23.376;2023-06-24T12:06:34;27.25;25.75;16.25
72307;PMS5003;60257;42.638;23.376;2023-06-24T12:08:59;30.00;30.00;21.25
72307;PMS5003;60257;42.638;23.376;2023-06-24T12:11:25;30.50;26.75;17.00
72307;PMS5003;60257;42.638;23.376;2023-06-24T12:13:50;22.00;22.00;15.25
72307;PMS5003;60257;42.638;23.376;2023-06-24T12:16:16;27.00;27.00;18.00
72307;PMS5003;60257;42.638;23.376;2023-06-24T12:18:42;24.75;24.50;17.00
72307;PMS5003;60257;42.638;23.376;2023-06-24T12:21:08;28.00;26.25;18.75
72307;PMS5003;60257;42.638;23.376;2023-06-24T12:23:33;37.50;34.75;22.50
72307;PMS5003;60257;42.638;23.376;2023-06-24T12:25:59;34.25;33.50;21.50
72307;PMS5003;60257;42.638;23.376;2023-06-24T12:28:24;24.50;24.50;17.00
72307;PMS5003;60257;42.638;23.376;2023-06-24T12:30:50;31.50;31.50;21.75
72307;PMS5003;60257;42.638;23.376;2023-06-24T12:33:16;32.75;32.75;20.75
72307;PMS5003;60257;42.638;23.376;2023-06-24T12:35:44;32.00;31.00;19.50
72307;PMS5003;60257;42.638;23.376;2023-06-24T12:38:09;37.00;35.25;23.50
72307;PMS5003;60257;42.638;23.376;2023-06-24T12:40:35;22.25;22.25;16.00
72307;PMS5003;60257;42.638;23.376;2023-06-24T12:43:00;32.75;32.75;22.50
72307;PMS5003;60257;42.638;23.376;2023-06-24T12:45:26;31.00;31.00;19.75
72307;PMS5003;60257;42.638;23.376;2023-06-24T12:47:52;26.25;26.25;21.00
72307;PMS5003;60257;42.638;23.376;2023-06-24T12:50:17;28.75;28.25;20.25
72307;PMS5003;60257;42.638;23.376;2023-06-24T12:52:43;23.25;22.75;14.25
72307;PMS5003;60257;42.638;23.376;2023-06-24T12:55:08;24.25;24.25;16.50
72307;PMS5003;60257;42.638;23.376;2023-06-24T12:57:34;30.50;30.50;20.75
72307;PMS5003;60257;42.638;23.376;2023-06-24T13:00:00;29.25;29.25;18.25
72307;PMS5003;60257;42.638;23.376;2023-06-24T13:02:26;28.25;26.75;17.75
72307;PMS5003;60257;42.638;23.376;2023-06-24T13:04:52;28.50;27.75;16.25
72307;PMS5003;60257;42.638;23.376;2023-06-24T13:07:17;28.25;27.75;20.50
72307;PMS5003;60257;42.638;23.376;2023-06-24T13:09:43;32.00;32.00;21.00
72307;PMS5003;60257;42.638;23.376;2023-06-24T13:12:08;34.25;34.00;21.50
72307;PMS5003;60257;42.638;23.376;2023-06-24T13:14:34;22.25;22.25;15.75
72307;PMS5003;60257;42.638;23.376;2023-06-24T13:16:59;22.75;22.50;15.75
72307;PMS5003;60257;42.638;23.376;2023-06-24T13:19:25;24.50;24.50;18.00
72307;PMS5003;60257;42.638;23.376;2023-06-24T13:21:50;20.50;20.50;14.75
72307;PMS5003;60257;42.638;23.376;2023-06-24T13:24:16;28.00;26.75;15.25
72307;PMS5003;60257;42.638;23.376;2023-06-24T13:26:41;27.00;27.00;16.75
72307;PMS5003;60257;42.638;23.376;2023-06-24T13:29:06;23.75;21.75;13.75
72307;PMS5003;60257;42.638;23.376;2023-06-24T13:31:32;25.75;24.00;17.25
72307;PMS5003;60257;42.638;23.376;2023-06-24T13:33:58;30.75;30.75;22.25
72307;PMS5003;60257;42.638;23.376;2023-06-24T13:36:33;14.75;14.00;11.00
72307;PMS5003;60257;42.638;23.376;2023-06-24T13:39:02;19.00;19.00;13.00
72307;PMS5003;60257;42.638;23.376;2023-06-24T13:41:28;25.50;24.75;17.25
72307;PMS5003;60257;42.638;23.376;2023-06-24T13:43:56;22.75;21.25;12.00
72307;PMS5003;60257;42.638;23.376;2023-06-24T13:46:22;21.50;21.50;14.50
72307;PMS5003;60257;42.638;23.376;2023-06-24T13:48:48;27.00;22.25;12.50